Time;durP1;ratioP1;P1;durP2;ratioP2;P2;SDS_P1;SDS_P2;PMS_P1;PMS_P2;Temp;Humidity;BMP_temperature;BMP_pressure;BME280_temperature;BME280_humidity;BME280_pressure;Samples;Min_cycle;Max_cycle;Signal;HPM_P1;HPM_P2
2023/12/26 00:09:23;;;;;;;;;;;;;;;6.29;100.00;98449.27;434771;1257;125643;-62
2023/12/26 00:19:27;;;;;;;;;;;;;;;6.02;100.00;98456.74;436242;1256;127262;-61
2023/12/26 00:29:32;;;;;;;;;;;;;;;5.88;100.00;98439.84;435737;1254;125599;-62
2023/12/26 00:39:36;;;;;;;;;;;;;;;5.77;100.00;98433.42;435005;1254;125789;-62
2023/12/26 00:49:42;;;;;;;;;;;;;;;5.75;100.00;98440.13;435604;1255;126305;-62
2023/12/26 00:59:46;;;;;;;;;;;;;;;5.83;100.00;98446.39;435354;1254;126055;-62
2023/12/26 01:09:50;;;;;;;;;;;;;;;5.95;100.00;98439.75;435437;1251;126390;-62
2023/12/26 01:19:55;;;;;;;;;;;;;;;6.05;100.00;98440.37;435314;1251;126554;-62
2023/12/26 01:30:01;;;;;;;;;;;;;;;6.14;100.00;98443.26;435202;1251;125349;-62
2023/12/26 01:40:06;;;;;;;;;;;;;;;6.19;100.00;98436.06;435317;1251;126370;-61
2023/12/26 01:50:11;;;;;;;;;;;;;;;6.24;100.00;98426.17;436792;1254;126312;-61
2023/12/26 02:00:18;;;;;;;;;;;;;;;6.31;100.00;98414.95;435398;1251;125534;-61
2023/12/26 02:10:22;;;;;;;;;;;;;;;6.39;100.00;98393.35;435235;1254;126383;-59
2023/12/26 02:20:26;;;;;;;;;;;;;;;6.43;100.00;98385.59;435238;1254;126519;-61
2023/12/26 02:30:32;;;;;;;;;;;;;;;6.47;100.00;98391.09;435342;1251;126918;-61
2023/12/26 02:40:36;;;;;;;;;;;;;;;6.49;100.00;98390.64;435934;1254;126831;-61
2023/12/26 02:50:41;;;;;;;;;;;;;;;6.48;100.00;98366.17;435163;1254;125818;-60
2023/12/26 03:00:45;;;;;;;;;;;;;;;6.45;100.00;98344.48;435349;1251;126188;-61
2023/12/26 03:10:49;;;;;;;;;;;;;;;6.37;100.00;98339.24;435229;1251;127797;-62
2023/12/26 03:20:54;;;;;;;;;;;;;;;6.29;100.00;98320.83;435188;1254;126647;-62
2023/12/26 03:30:58;;;;;;;;;;;;;;;6.25;100.00;98304.09;435572;1251;125455;-62
2023/12/26 03:41:03;;;;;;;;;;;;;;;6.22;100.00;98294.69;435360;1251;126283;-61
2023/12/26 03:51:07;;;;;;;;;;;;;;;6.21;100.00;98282.41;435179;1251;128055;-61
2023/12/26 04:01:13;;;;;;;;;;;;;;;6.25;100.00;98262.70;436186;1251;125571;-61
2023/12/26 04:11:18;;;;;;;;;;;;;;;6.29;100.00;98241.21;435428;1254;126174;-61
2023/12/26 04:21:22;;;;;;;;;;;;;;;6.34;100.00;98222.64;436446;1250;126966;-61
2023/12/26 04:31:27;;;;;;;;;;;;;;;6.41;100.00;98212.41;435728;1250;125393;-61
2023/12/26 04:41:32;;;;;;;;;;;;;;;6.50;100.00;98197.89;435634;1253;126736;-61
2023/12/26 04:51:36;;;;;;;;;;;;;;;6.57;100.00;98197.25;435754;1254;125847;-62
2023/12/26 05:01:44;;;;;;;;;;;;;;;6.61;100.00;98181.36;435994;1250;125372;-61
2023/12/26 05:11:49;;;;;;;;;;;;;;;6.66;100.00;98165.20;436800;1253;125507;-61
2023/12/26 05:21:53;;;;;;;;;;;;;;;6.71;100.00;98143.28;435831;1254;126527;-61
2023/12/26 05:31:57;;;;;;;;;;;;;;;6.75;100.00;98123.69;435948;1250;125645;-61
2023/12/26 05:42:03;;;;;;;;;;;;;;;6.78;100.00;98106.63;435780;1251;126098;-62
2023/12/26 05:52:07;;;;;;;;;;;;;;;6.81;100.00;98093.51;435715;1253;126771;-62
2023/12/26 06:02:12;;;;;;;;;;;;;;;6.90;100.00;98089.41;436381;1251;126762;-63
2023/12/26 06:12:16;;;;;;;;;;;;;;;7.00;100.00;98073.68;436103;1254;126407;-61
2023/12/26 06:22:21;;;;;;;;;;;;;;;7.08;100.00;98055.70;436024;1253;127662;-62
2023/12/26 06:32:26;;;;;;;;;;;;;;;7.13;100.00;98042.11;436613;1254;127442;-61
2023/12/26 06:42:30;;;;;;;;;;;;;;;7.19;100.00;98040.30;436489;1251;125884;-60
2023/12/26 06:52:36;;;;;;;;;;;;;;;7.22;100.00;98037.14;435754;1250;126417;-61
2023/12/26 07:02:40;;;;;;;;;;;;;;;7.26;100.00;98034.19;435557;1254;127037;-61
2023/12/26 07:12:45;;;;;;;;;;;;;;;7.31;100.00;98041.14;435916;1250;127149;-61
2023/12/26 07:22:54;;;;;;;;;;;;;;;7.38;100.00;98036.42;437976;1251;125942;-61
2023/12/26 07:32:59;;;;;;;;;;;;;;;7.47;100.00;98042.54;436838;1250;126136;-61
2023/12/26 07:43:04;;;;;;;;;;;;;;;7.57;100.00;98058.30;435921;1251;125409;-62
2023/12/26 07:53:09;;;;;;;;;;;;;;;7.68;100.00;98048.48;436264;1250;125915;-62
2023/12/26 08:03:15;;;;;;;;;;;;;;;7.78;100.00;98066.34;435720;1254;126007;-61
2023/12/26 08:13:20;;;;;;;;;;;;;;;7.89;100.00;98070.76;436018;1250;127046;-61
2023/12/26 08:23:24;;;;;;;;;;;;;;;7.99;100.00;98073.97;435676;1254;126211;-60
2023/12/26 08:33:29;;;;;;;;;;;;;;;8.20;100.00;98077.58;435699;1251;126985;-61
2023/12/26 08:43:34;;;;;;;;;;;;;;;8.40;100.00;98098.67;436629;1250;125489;-63
2023/12/26 08:53:39;;;;;;;;;;;;;;;8.53;100.00;98105.05;436748;1251;126769;-62
2023/12/26 09:03:44;;;;;;;;;;;;;;;8.58;100.00;98112.30;435848;1254;125994;-61
2023/12/26 09:13:48;;;;;;;;;;;;;;;8.59;100.00;98127.45;436168;1254;126035;-62
2023/12/26 09:23:53;;;;;;;;;;;;;;;8.58;100.00;98143.02;436841;1250;126136;-61
2023/12/26 09:33:57;;;;;;;;;;;;;;;8.54;100.00;98157.59;436067;1250;126295;-62
2023/12/26 09:44:02;;;;;;;;;;;;;;;8.53;100.00;98156.99;436067;1254;126086;-62
2023/12/26 09:54:09;;;;;;;;;;;;;;;8.59;100.00;98153.23;435925;1250;127535;-62
2023/12/26 10:04:13;;;;;;;;;;;;;;;8.62;100.00;98158.75;437525;1254;126561;-62
2023/12/26 10:14:27;;;;;;;;;;;;;;;8.62;100.00;98171.31;436001;1255;127385;-61
2023/12/26 10:24:32;;;;;;;;;;;;;;;8.64;100.00;98180.08;435719;1250;126036;-63
2023/12/26 10:34:36;;;;;;;;;;;;;;;8.60;100.00;98214.93;435406;1255;126952;-63
2023/12/26 10:44:41;;;;;;;;;;;;;;;8.43;100.00;98234.09;435439;1255;126302;-64
2023/12/26 10:54:47;;;;;;;;;;;;;;;8.30;100.00;98243.34;435737;1254;126249;-62
2023/12/26 11:04:52;;;;;;;;;;;;;;;8.21;100.00;98253.55;435838;1256;125934;-62
2023/12/26 11:14:57;;;;;;;;;;;;;;;8.23;100.00;98269.23;436168;1255;126863;-63
2023/12/26 11:25:02;;;;;;;;;;;;;;;8.27;100.00;98267.74;436073;1250;126566;-66
2023/12/26 11:35:06;;;;;;;;;;;;;;;8.32;100.00;98283.06;437641;1251;125940;-72
2023/12/26 11:45:11;;;;;;;;;;;;;;;8.30;100.00;98288.79;439567;1255;126081;-74
2023/12/26 11:55:16;;;;;;;;;;;;;;;8.38;100.00;98307.36;439987;1251;125457;-72
2023/12/26 12:05:20;;;;;;;;;;;;;;;8.50;100.00;98319.77;440021;1250;126072;-73
2023/12/26 12:15:25;;;;;;;;;;;;;;;8.56;100.00;98345.50;439741;1254;126881;-77
2023/12/26 12:25:29;;;;;;;;;;;;;;;8.54;100.00;98352.64;440231;1251;126234;-73
2023/12/26 12:35:33;;;;;;;;;;;;;;;8.49;100.00;98339.59;439703;1251;126682;-73
2023/12/26 12:45:38;;;;;;;;;;;;;;;8.40;100.00;98353.30;439662;1256;126223;-72
2023/12/26 12:55:43;;;;;;;;;;;;;;;8.33;100.00;98366.23;437418;1251;126509;-68
2023/12/26 13:05:47;;;;;;;;;;;;;;;8.12;100.00;98374.48;435516;1250;126476;-66
2023/12/26 13:15:52;;;;;;;;;;;;;;;7.92;100.00;98388.69;436271;1251;125850;-72
2023/12/26 13:25:57;;;;;;;;;;;;;;;8.01;100.00;98397.26;435689;1251;126774;-69
2023/12/26 13:36:02;;;;;;;;;;;;;;;7.98;100.00;98413.34;436172;1251;126608;-67
2023/12/26 13:46:07;;;;;;;;;;;;;;;7.94;100.00;98429.80;435617;1256;126191;-67
2023/12/26 13:56:11;;;;;;;;;;;;;;;7.86;100.00;98450.42;435486;1250;126395;-69
2023/12/26 14:06:16;;;;;;;;;;;;;;;7.72;100.00;98468.79;435698;1256;125930;-67
2023/12/26 14:16:23;;;;;;;;;;;;;;;7.61;100.00;98489.11;436728;1256;125746;-69
2023/12/26 14:26:29;;;;;;;;;;;;;;;7.52;100.00;98498.06;440982;1251;126120;-79
2023/12/26 14:36:34;;;;;;;;;;;;;;;7.20;100.00;98507.54;440227;1255;125995;-74
2023/12/26 14:46:39;;;;;;;;;;;;;;;6.93;100.00;98518.55;439945;1256;128666;-75
2023/12/26 14:56:43;;;;;;;;;;;;;;;6.92;100.00;98532.72;439815;1251;128154;-81
2023/12/26 15:06:48;;;;;;;;;;;;;;;6.99;100.00;98537.09;439753;1255;127372;-77
2023/12/26 15:16:52;;;;;;;;;;;;;;;7.04;100.00;98549.66;439562;1256;126028;-81
2023/12/26 15:26:57;;;;;;;;;;;;;;;7.03;100.00;98558.43;440161;1256;125757;-81
2023/12/26 15:37:01;;;;;;;;;;;;;;;6.83;100.00;98579.55;439990;1253;125833;-77
2023/12/26 15:47:07;;;;;;;;;;;;;;;6.48;100.00;98592.74;439297;1253;126027;-77
2023/12/26 15:57:11;;;;;;;;;;;;;;;6.30;100.00;98603.91;436341;1256;127211;-64
2023/12/26 16:07:16;;;;;;;;;;;;;;;6.37;100.00;98608.70;435439;1255;125564;-68
2023/12/26 16:17:22;;;;;;;;;;;;;;;6.36;100.00;98623.02;439039;1255;126323;-67
2023/12/26 16:27:26;;;;;;;;;;;;;;;6.16;100.00;98639.00;435569;1256;126338;-67
2023/12/26 16:37:31;;;;;;;;;;;;;;;5.96;100.00;98652.52;435596;1257;125602;-69
2023/12/26 16:47:37;;;;;;;;;;;;;;;5.81;100.00;98665.21;435377;1255;126256;-69
2023/12/26 16:57:41;;;;;;;;;;;;;;;5.75;100.00;98680.14;435566;1256;125901;-69
2023/12/26 17:07:46;;;;;;;;;;;;;;;5.83;100.00;98678.61;435792;1257;125518;-69
2023/12/26 17:17:50;;;;;;;;;;;;;;;5.99;100.00;98693.54;436461;1251;127199;-70
2023/12/26 17:27:55;;;;;;;;;;;;;;;6.01;100.00;98695.30;435751;1252;126717;-70
2023/12/26 17:37:59;;;;;;;;;;;;;;;6.00;100.00;98702.81;436038;1254;126377;-70
2023/12/26 17:48:05;;;;;;;;;;;;;;;6.02;100.00;98703.77;435762;1254;126336;-69
2023/12/26 17:58:09;;;;;;;;;;;;;;;5.85;100.00;98709.41;436126;1252;126007;-71
2023/12/26 18:08:15;;;;;;;;;;;;;;;5.64;100.00;98714.62;435995;1251;125504;-70
2023/12/26 18:18:19;;;;;;;;;;;;;;;5.57;100.00;98712.23;435920;1251;127515;-71
2023/12/26 18:28:24;;;;;;;;;;;;;;;5.44;100.00;98717.15;435925;1251;125900;-70
2023/12/26 18:38:30;;;;;;;;;;;;;;;5.30;100.00;98736.14;435378;1251;126396;-71
2023/12/26 18:48:34;;;;;;;;;;;;;;;5.14;100.00;98736.84;436040;1251;127238;-70
2023/12/26 18:58:39;;;;;;;;;;;;;;;5.01;100.00;98739.48;435323;1254;126054;-71
2023/12/26 19:08:44;;;;;;;;;;;;;;;4.93;100.00;98743.87;435552;1254;127418;-70
2023/12/26 19:18:48;;;;;;;;;;;;;;;4.84;100.00;98756.35;435094;1254;125889;-70
2023/12/26 19:28:53;;;;;;;;;;;;;;;4.75;100.00;98760.44;435917;1251;125870;-70
2023/12/26 19:38:58;;;;;;;;;;;;;;;4.69;100.00;98763.01;435153;1254;125895;-70
2023/12/26 19:49:03;;;;;;;;;;;;;;;4.67;100.00;98772.48;435218;1254;126270;-71
2023/12/26 19:59:08;;;;;;;;;;;;;;;4.66;100.00;98792.64;435020;1254;126715;-70
2023/12/26 20:09:15;;;;;;;;;;;;;;;4.63;100.00;98805.81;435250;1256;126095;-70
2023/12/26 20:19:20;;;;;;;;;;;;;;;4.66;100.00;98818.84;435365;1251;126290;-70
2023/12/26 20:29:26;;;;;;;;;;;;;;;4.62;100.00;98821.27;434865;1251;126236;-70
2023/12/26 20:39:30;;;;;;;;;;;;;;;4.56;100.00;98832.87;434979;1253;126686;-66
2023/12/26 20:49:35;;;;;;;;;;;;;;;4.53;100.00;98850.34;435894;1254;126910;-66
2023/12/26 20:59:39;;;;;;;;;;;;;;;4.68;100.00;98858.27;436340;1251;126189;-66
2023/12/26 21:09:44;;;;;;;;;;;;;;;4.94;100.00;98867.33;435185;1254;126506;-65
2023/12/26 21:19:48;;;;;;;;;;;;;;;5.13;100.00;98878.31;435850;1251;126071;-66
2023/12/26 21:29:53;;;;;;;;;;;;;;;5.28;100.00;98892.98;435403;1254;125910;-64
2023/12/26 21:40:00;;;;;;;;;;;;;;;5.41;100.00;98903.71;435076;1252;126302;-64
2023/12/26 21:50:05;;;;;;;;;;;;;;;5.52;100.00;98921.36;435022;1251;126403;-64
2023/12/26 22:00:13;;;;;;;;;;;;;;;5.63;100.00;98929.13;437965;1251;125987;-64
2023/12/26 22:10:17;;;;;;;;;;;;;;;5.69;100.00;98942.15;436901;1254;182829;-64
2023/12/26 22:20:21;;;;;;;;;;;;;;;5.73;100.00;98951.86;435136;1254;127019;-64
2023/12/26 22:30:26;;;;;;;;;;;;;;;5.76;100.00;98952.59;437256;1251;126395;-62
2023/12/26 22:40:35;;;;;;;;;;;;;;;5.77;100.00;98960.50;437212;1253;128114;-63
2023/12/26 22:50:40;;;;;;;;;;;;;;;5.76;100.00;98964.01;435164;1253;168540;-61
2023/12/26 23:00:46;;;;;;;;;;;;;;;5.73;100.00;98984.31;436129;1252;125895;-62
2023/12/26 23:10:51;;;;;;;;;;;;;;;5.59;100.00;99019.45;436119;1254;127047;-63
2023/12/26 23:20:55;;;;;;;;;;;;;;;5.19;100.00;99043.00;434925;1250;126745;-62
2023/12/26 23:31:00;;;;;;;;;;;;;;;4.79;100.00;99055.37;435563;1253;125887;-62
2023/12/26 23:41:05;;;;;;;;;;;;;;;4.49;100.00;99060.62;434564;1250;126042;-62
2023/12/26 23:51:09;;;;;;;;;;;;;;;4.23;100.00;99069.77;435294;1253;126839;-61
